KRPD

Rice Lake Regional - Carl's Field Airport

Rice Lake, Wisconsin, USA
METAR KRPD 181435Z AUTO 11003KT 3SM BR OVC002 16/16 A3014 RMK AO2 T01550155
Observed Flight Rules
Aug-18 @ 14:35 UTC (18 minutes ago) Instrument Flight Rules
Wind Visibility Clouds Conditions
110° at 3 knots 3 miles
  • Overcast at 200' AGL
  • Mist
Temperatures Readings
Current 16°C / 61°F
Dewpoint 16°C / 61°F
Humidity 100%
Altimeter 30.14" Hg
Pressure 1021 hPa
Elevation 338
METAR KRPD 181435Z AUTO 11003KT 3SM BR OVC002 16/16 A3014 RMK AO2 T01550155
Observed Flight Rules
Aug-18 @ 14:35 UTC
(18 minutes ago)
LIFR
Wind Visibility
110° at 3 knots 3 miles
Clouds
  • Overcast at 200' AGL
Conditions
  • Mist
Temperature Dewpoint
16°C / 61°F 16°C / 61°F
Humidity Altimeter Pressure
100% 30.14" Hg 1021 hPa